Wetterdaten: aktuell Mittwoch, 06.07.2022 08:20
Datum Zeit Temp. 2m rel. Feuchte Luftdruck Regen Wind Richtung Richtung Sonne ET UV-Index Solar Taupunkt Ben
06.07.2022 08:20 13,5 C 80 % 1025,7 hPa 0,0 mm 0,5 km/h (0 Bft) N-NW 334 0 min 0,0 mm 0,0 UV-I 92 W/m 10,1 C 6,7 km/h (2 Bft)
06.07.2022 07:20 11,3 C 86 % 1025,4 hPa 0,0 mm 0,1 km/h (0 Bft) N-NW 336 0 min 0,0 mm 0,0 UV-I 45 W/m 9,0 C 2,2 km/h (1 Bft)
06.07.2022 06:20 10,4 C 84 % 1025,2 hPa 0,0 mm 3,4 km/h (1 Bft) N-NW 337 5 min 0,0 mm 0,0 UV-I 18 W/m 7,8 C 6,7 km/h (2 Bft)
06.07.2022 05:20 10,7 C 83 % 1025,0 hPa 0,0 mm 0,2 km/h (0 Bft) N-NW 328 0 min 0,0 mm 0,0 UV-I 0 W/m 7,9 C 2,2 km/h (1 Bft)
06.07.2022 04:20 11,2 C 82 % 1025,0 hPa 0,0 mm 0,2 km/h (0 Bft) NW 325 0 min 0,0 mm 0,0 UV-I 0 W/m 8,2 C 2,2 km/h (1 Bft)
06.07.2022 03:20 11,9 C 79 % 1025,0 hPa 0,0 mm 0,0 km/h (0 Bft) NW 324 0 min 0,0 mm 0,0 UV-I 0 W/m 8,4 C 0,0 km/h (0 Bft)
06.07.2022 02:20 13,3 C 74 % 1024,9 hPa 0,0 mm 0,0 km/h (0 Bft) N 355 0 min 0,0 mm 0,0 UV-I 0 W/m 8,8 C 0,0 km/h (0 Bft)
06.07.2022 01:20 14,6 C 73 % 1024,7 hPa 0,0 mm 0,0 km/h (0 Bft) N 355 0 min 0,0 mm 0,0 UV-I 0 W/m 9,8 C 0,0 km/h (0 Bft)
06.07.2022 00:20 16,0 C 68 % 1024,6 hPa 0,0 mm 0,0 km/h (0 Bft) N 355 0 min 0,0 mm 0,0 UV-I 0 W/m 10,1 C 0,0 km/h (0 Bft)
05.07.2022 23:20 17,1 C 62 % 1024,1 hPa 0,0 mm 0,1 km/h (0 Bft) N 10 0 min 0,0 mm 0,0 UV-I 0 W/m 9,8 C 2,2 km/h (1 Bft)
05.07.2022 22:20 18,0 C 60 % 1023,4 hPa 0,0 mm 0,2 km/h (0 Bft) NO 34 0 min 0,0 mm 0,0 UV-I 0 W/m 10,1 C 2,2 km/h (1 Bft)
05.07.2022 21:20 18,7 C 58 % 1022,8 hPa 0,0 mm 0,0 km/h (0 Bft) NO 34 10 min 0,1 mm 0,0 UV-I 8 W/m 10,3 C 0,0 km/h (0 Bft)
05.07.2022 20:20 19,8 C 56 % 1022,2 hPa 0,0 mm 0,8 km/h (0 Bft) N-NO 33 20 min 0,1 mm 0,0 UV-I 77 W/m 10,8 C 4,4 km/h (1 Bft)
05.07.2022 19:20 20,9 C 55 % 1021,7 hPa 0,0 mm 0,4 km/h (0 Bft) N-NO 26 5 min 0,1 mm 0,0 UV-I 127 W/m 11,5 C 2,2 km/h (1 Bft)
05.07.2022 18:20 21,8 C 53 % 1021,4 hPa 0,0 mm 0,1 km/h (0 Bft) N-NO 17 20 min 0,3 mm 0,0 UV-I 406 W/m 11,8 C 2,2 km/h (1 Bft)
05.07.2022 17:20 24,0 C 41 % 1021,2 hPa 0,0 mm 2,1 km/h (1 Bft) N 349 40 min 0,4 mm 0,0 UV-I 646 W/m 9,9 C 15,5 km/h (3 Bft)
05.07.2022 16:20 23,6 C 43 % 1021,5 hPa 0,0 mm 7,0 km/h (2 Bft) NW 311 45 min 0,3 mm 0,0 UV-I 762 W/m 10,3 C 22,2 km/h (4 Bft)
05.07.2022 15:20 22,6 C 43 % 1021,6 hPa 0,0 mm 1,4 km/h (1 Bft) N-NW 335 55 min 0,5 mm 0,0 UV-I 847 W/m 9,4 C 6,7 km/h (2 Bft)
05.07.2022 14:20 23,2 C 43 % 1021,7 hPa 0,0 mm 2,6 km/h (1 Bft) NW 324 40 min 0,4 mm 0,9 UV-I 895 W/m 9,9 C 13,3 km/h (3 Bft)
05.07.2022 13:20 21,8 C 49 % 1022,0 hPa 0,0 mm 1,1 km/h (1 Bft) NW 326 50 min 0,4 mm 0,0 UV-I 930 W/m 10,6 C 4,4 km/h (1 Bft)
05.07.2022 12:20 21,4 C 48 % 1022,2 hPa 0,0 mm 1,7 km/h (1 Bft) N-NW 345 50 min 0,4 mm 0,0 UV-I 342 W/m 9,9 C 8,9 km/h (2 Bft)
05.07.2022 11:20 20,7 C 54 % 1022,1 hPa 0,0 mm 0,9 km/h (0 Bft) N-NW 340 60 min 0,4 mm 0,0 UV-I 1046 W/m 11,1 C 6,7 km/h (2 Bft)
05.07.2022 10:20 19,8 C 58 % 1022,1 hPa 0,0 mm 0,6 km/h (0 Bft) NW 319 60 min 0,1 mm 0,0 UV-I 832 W/m 11,3 C 4,4 km/h (1 Bft)
05.07.2022 09:20 18,4 C 68 % 1022,0 hPa 0,0 mm 1,2 km/h (1 Bft) N-NW 348 20 min 0,0 mm 0,4 UV-I 587 W/m 12,4 C 6,7 km/h (2 Bft)
05.07.2022 09:00 18,0 C 71 % 1021,9 hPa 0,0 mm 0,5 km/h (0 Bft) N-NW 345 0 min 0,0 mm 0,3 UV-I 514 W/m 12,7 C 4,4 km/h (1 Bft)
_ Min-Zeit 06:20 16:30 17:05 - 13:30 - - - - - - 05:45 13:30
Minimum _ 10,4 C 38 % 1021,1 hPa - 0,0 km/h (0 Bft) - - - - - - 7,7 C 0,0 km/h (0 Bft)
_ Max-Zeit 16:30 06:55 08:05 09:00 16:25 - - 09:00 15:00 12:30 14:35 09:00 14:10
Maximum _ 24,2 C 86 % 1025,7 hPa 0,0 mm 10,7 km/h
NW (2 Bft)
- - 5 min 0,5 mm 4,0 UV-I 1175 W/m 12,7 C 22,2 km/h
NW (4 Bft)
Durchschnitt _ 17,8 C 63 % 1023,1 hPa #0,0 mm 0,9 km/h (0 Bft) N-NW - #5 min. #0,051 mm 0,1 UV-I 47 W/m 10,2 C 4,6 km/h (1 Bft)



© 1998 - 2022 www.pulheimwetter.de